createdAt,value
2023-02-27T00:02:18.330Z,8.07
2023-02-27T00:04:47.680Z,7.73
2023-02-27T00:07:17.751Z,14.27
2023-02-27T00:09:46.746Z,12.70
2023-02-27T00:12:13.791Z,10.50
2023-02-27T00:14:40.937Z,9.63
2023-02-27T00:17:08.096Z,10.07
2023-02-27T00:19:35.007Z,6.33
2023-02-27T00:22:02.062Z,8.03
2023-02-27T00:24:29.179Z,11.37
2023-02-27T00:27:01.237Z,15.60
2023-02-27T00:29:33.243Z,8.43
2023-02-27T00:32:00.506Z,10.93
2023-02-27T00:34:27.540Z,11.13
2023-02-27T00:36:57.085Z,12.37
2023-02-27T00:39:26.673Z,10.10
2023-02-27T00:41:53.845Z,11.43
2023-02-27T00:44:20.860Z,10.70
2023-02-27T00:46:47.950Z,11.60
2023-02-27T00:49:15.187Z,20.50
2023-02-27T00:51:42.235Z,15.40
2023-02-27T00:54:09.751Z,7.73
2023-02-27T00:56:36.917Z,8.07
2023-02-27T00:59:04.360Z,13.70
2023-02-27T01:01:33.782Z,12.10
2023-02-27T01:04:03.135Z,21.30
2023-02-27T01:06:30.088Z,14.03
2023-02-27T01:08:57.053Z,17.13
2023-02-27T01:11:26.774Z,7.83
2023-02-27T01:13:53.900Z,12.00
2023-02-27T01:16:23.617Z,8.47
2023-02-27T01:18:50.727Z,14.13
2023-02-27T01:21:17.843Z,8.40
2023-02-27T01:23:44.937Z,10.67
2023-02-27T01:26:12.152Z,11.00
2023-02-27T01:28:39.317Z,10.83
2023-02-27T01:31:09.324Z,10.97
2023-02-27T01:33:38.519Z,7.30
2023-02-27T01:36:05.983Z,9.30
2023-02-27T01:38:32.860Z,20.43
2023-02-27T01:41:02.874Z,11.70
2023-02-27T01:43:32.464Z,7.53
2023-02-27T01:46:04.555Z,11.53
2023-02-27T01:48:36.046Z,9.47
2023-02-27T01:51:13.152Z,6.70
2023-02-27T01:53:42.002Z,11.90
2023-02-27T01:56:34.880Z,8.40
2023-02-27T01:59:06.862Z,10.10
2023-02-27T02:01:35.687Z,9.17
2023-02-27T02:04:28.018Z,10.00
2023-02-27T02:07:02.732Z,9.03
2023-02-27T02:09:31.183Z,10.90
2023-02-27T02:11:59.660Z,7.73
2023-02-27T02:14:29.082Z,8.33
2023-02-27T02:17:30.529Z,8.40
2023-02-27T02:20:35.661Z,6.90
2023-02-27T02:23:36.995Z,6.50
2023-02-27T02:26:37.112Z,19.93
2023-02-27T02:29:43.993Z,12.27
2023-02-27T02:32:31.054Z,13.27
2023-02-27T02:35:16.817Z,11.20
2023-02-27T02:38:17.563Z,7.97
2023-02-27T02:41:24.145Z,7.40
2023-02-27T02:44:27.486Z,10.80
2023-02-27T02:47:32.409Z,10.17
2023-02-27T02:50:24.797Z,9.37
2023-02-27T02:53:19.207Z,11.57
2023-02-27T02:55:53.627Z,8.00
2023-02-27T02:58:29.874Z,6.63
2023-02-27T03:01:13.569Z,9.80
2023-02-27T03:04:14.634Z,16.67
2023-02-27T03:06:49.096Z,12.03
2023-02-27T03:09:33.548Z,17.53
2023-02-27T03:12:13.624Z,9.07
2023-02-27T03:14:49.903Z,6.00
2023-02-27T03:17:48.807Z,14.87
2023-02-27T03:20:34.588Z,6.23
2023-02-27T03:23:12.392Z,7.83
2023-02-27T03:25:44.078Z,6.10
2023-02-27T03:28:23.678Z,13.73
2023-02-27T03:31:01.599Z,8.43
2023-02-27T03:33:36.637Z,7.90
2023-02-27T03:36:27.677Z,9.47
2023-02-27T03:39:14.098Z,5.97
2023-02-27T03:42:15.735Z,8.00
2023-02-27T03:45:31.854Z,6.17
2023-02-27T03:47:59.854Z,10.30
2023-02-27T03:50:27.254Z,5.90
2023-02-27T03:52:54.574Z,7.87
2023-02-27T03:55:32.743Z,11.13
2023-02-27T03:58:00.871Z,9.67
2023-02-27T04:00:29.070Z,6.90
2023-02-27T04:03:02.673Z,11.30
2023-02-27T04:05:30.131Z,6.27
2023-02-27T04:08:43.597Z,8.47
2023-02-27T04:12:04.601Z,8.53
2023-02-27T04:14:47.226Z,5.33
2023-02-27T04:17:15.136Z,6.30
2023-02-27T04:20:05.132Z,8.07
2023-02-27T04:23:10.375Z,9.80
2023-02-27T04:26:15.500Z,11.03
2023-02-27T04:29:04.276Z,10.07
2023-02-27T04:31:47.297Z,5.23
2023-02-27T04:34:44.056Z,6.20
2023-02-27T04:37:42.465Z,8.10
2023-02-27T04:40:16.923Z,11.27
2023-02-27T04:42:55.132Z,15.80
2023-02-27T04:45:25.792Z,11.40
2023-02-27T04:48:03.591Z,9.33
2023-02-27T04:50:41.814Z,7.70
2023-02-27T04:53:27.328Z,9.77
2023-02-27T04:56:04.704Z,13.70
2023-02-27T04:58:46.613Z,7.90
2023-02-27T05:01:31.659Z,6.57
2023-02-27T05:04:00.591Z,5.17
2023-02-27T05:06:40.732Z,7.93
2023-02-27T05:09:35.536Z,7.07
2023-02-27T05:12:23.164Z,4.97
2023-02-27T05:15:00.193Z,5.10
2023-02-27T05:18:03.373Z,4.53
2023-02-27T05:21:15.278Z,6.93
2023-02-27T05:23:59.921Z,14.87
2023-02-27T05:27:20.896Z,5.10
2023-02-27T05:29:53.521Z,6.73
2023-02-27T05:32:48.964Z,6.73
2023-02-27T05:35:46.577Z,5.20
2023-02-27T05:38:27.410Z,7.80
2023-02-27T05:41:03.988Z,6.47
2023-02-27T05:43:41.532Z,5.27
2023-02-27T05:46:19.422Z,5.77
2023-02-27T05:49:20.548Z,10.17
2023-02-27T05:51:54.914Z,10.03
2023-02-27T05:54:43.425Z,11.10
2023-02-27T05:57:18.118Z,5.23
2023-02-27T05:59:57.486Z,23.13
2023-02-27T06:02:27.104Z,10.23
2023-02-27T06:04:55.339Z,18.03
2023-02-27T06:07:23.283Z,12.60
2023-02-27T06:09:51.609Z,23.17
2023-02-27T06:12:19.361Z,10.03
2023-02-27T06:14:48.784Z,5.53
2023-02-27T06:17:15.776Z,11.13
2023-02-27T06:19:42.837Z,5.27
2023-02-27T06:22:11.321Z,7.30
2023-02-27T06:24:38.405Z,6.57
2023-02-27T06:27:05.325Z,7.00
2023-02-27T06:29:32.272Z,9.30
2023-02-27T06:32:01.714Z,9.60
2023-02-27T06:34:28.933Z,7.50
2023-02-27T06:36:55.879Z,12.67
2023-02-27T06:39:22.960Z,28.33
2023-02-27T06:41:52.473Z,13.17
2023-02-27T06:44:21.973Z,11.83
2023-02-27T06:46:48.910Z,20.20
2023-02-27T06:49:15.825Z,15.30
2023-02-27T06:51:44.926Z,23.90
2023-02-27T06:54:11.983Z,9.77
2023-02-27T06:56:38.876Z,15.00
2023-02-27T06:59:05.949Z,8.20
2023-02-27T07:01:32.855Z,9.10
2023-02-27T07:04:01.143Z,10.43
2023-02-27T07:06:31.998Z,14.03
2023-02-27T07:09:15.270Z,13.77
2023-02-27T07:11:42.293Z,9.57
2023-02-27T07:14:09.237Z,16.60
2023-02-27T07:16:38.740Z,18.10
2023-02-27T07:19:07.448Z,9.93
2023-02-27T07:21:38.717Z,12.63
2023-02-27T07:24:05.852Z,14.63
2023-02-27T07:26:32.833Z,19.90
2023-02-27T07:29:00.500Z,12.07
2023-02-27T07:31:28.967Z,13.00
2023-02-27T07:33:56.145Z,19.83
2023-02-27T07:36:23.791Z,10.97
2023-02-27T07:38:53.436Z,10.83
2023-02-27T07:41:30.024Z,9.37
2023-02-27T07:43:58.132Z,10.40
2023-02-27T07:46:28.176Z,13.83
2023-02-27T07:48:55.415Z,10.97
2023-02-27T07:51:22.555Z,19.20
2023-02-27T07:53:49.474Z,7.67
2023-02-27T07:56:16.455Z,7.50
2023-02-27T07:58:46.422Z,9.10
2023-02-27T08:01:13.559Z,8.10
2023-02-27T08:03:40.499Z,10.13
2023-02-27T08:06:12.146Z,9.23
2023-02-27T08:08:39.510Z,23.13
2023-02-27T08:11:08.478Z,17.13
2023-02-27T08:16:24.437Z,10.40
2023-02-27T08:18:51.452Z,13.70
2023-02-27T08:21:25.623Z,12.77
2023-02-27T08:23:53.024Z,10.67
2023-02-27T08:26:20.195Z,14.00
2023-02-27T08:28:49.678Z,13.43
2023-02-27T08:31:20.143Z,13.70
2023-02-27T08:33:49.497Z,14.13
2023-02-27T08:36:16.954Z,10.73
2023-02-27T08:38:43.912Z,18.73
2023-02-27T08:41:10.836Z,11.83
2023-02-27T08:43:40.254Z,9.47
2023-02-27T08:46:07.309Z,20.13
2023-02-27T08:48:34.278Z,33.33
2023-02-27T08:51:04.075Z,14.80
2023-02-27T08:53:33.992Z,13.17
2023-02-27T08:56:00.883Z,17.10
2023-02-27T08:58:30.930Z,9.70
2023-02-27T09:00:57.876Z,16.33
2023-02-27T09:03:28.831Z,15.20
2023-02-27T09:05:56.819Z,13.03
2023-02-27T09:08:24.393Z,18.23
2023-02-27T09:10:51.409Z,14.57
2023-02-27T09:13:22.084Z,14.90
2023-02-27T09:15:49.048Z,13.63
2023-02-27T09:18:16.239Z,10.90
2023-02-27T09:20:43.174Z,13.10
2023-02-27T09:23:15.051Z,15.33
2023-02-27T09:25:42.440Z,11.40
2023-02-27T09:28:09.323Z,9.63
2023-02-27T09:30:38.858Z,19.00
2023-02-27T09:33:05.815Z,17.37
2023-02-27T09:35:38.272Z,23.47
2023-02-27T09:38:05.611Z,10.13
2023-02-27T09:40:42.227Z,10.03
2023-02-27T09:43:22.053Z,17.13
2023-02-27T09:45:56.111Z,12.57
2023-02-27T09:48:54.959Z,24.33
2023-02-27T09:51:22.985Z,14.93
2023-02-27T09:53:54.843Z,20.30
2023-02-27T09:56:49.167Z,13.80
2023-02-27T09:59:40.069Z,9.93
2023-02-27T10:02:44.762Z,11.10
2023-02-27T10:05:42.463Z,11.67
2023-02-27T10:08:22.698Z,9.00
2023-02-27T10:11:00.297Z,14.80
2023-02-27T10:13:53.679Z,13.07
2023-02-27T10:16:24.942Z,8.53
2023-02-27T10:18:59.502Z,12.27
2023-02-27T10:21:43.052Z,11.57
2023-02-27T10:24:29.480Z,12.63
2023-02-27T10:26:59.573Z,7.30
2023-02-27T10:29:43.814Z,9.57
2023-02-27T10:32:25.331Z,9.60
2023-02-27T10:34:57.099Z,11.40
2023-02-27T10:37:28.716Z,13.20
2023-02-27T10:40:06.811Z,8.67
2023-02-27T10:42:41.522Z,8.60
2023-02-27T10:45:17.439Z,8.20
2023-02-27T10:47:48.986Z,7.50
2023-02-27T10:50:29.898Z,7.40
2023-02-27T10:53:03.536Z,11.77
2023-02-27T10:55:36.275Z,15.20
2023-02-27T10:58:05.049Z,11.10
2023-02-27T11:00:45.585Z,5.20
2023-02-27T11:03:43.458Z,5.30
2023-02-27T11:06:25.953Z,3.97
2023-02-27T11:09:24.413Z,7.87
2023-02-27T11:11:55.469Z,5.13
2023-02-27T11:14:33.960Z,3.87
2023-02-27T11:17:03.897Z,6.97
2023-02-27T11:19:38.577Z,5.03
2023-02-27T11:22:17.587Z,4.97
2023-02-27T11:24:47.639Z,3.73
2023-02-27T11:27:30.276Z,5.80
2023-02-27T11:30:06.813Z,8.73
2023-02-27T11:32:51.975Z,3.33
2023-02-27T11:35:39.763Z,3.47
2023-02-27T11:38:26.947Z,13.60
2023-02-27T11:41:04.708Z,1.97
2023-02-27T11:43:41.778Z,4.20
2023-02-27T11:46:30.089Z,3.00
2023-02-27T11:49:06.690Z,2.07
2023-02-27T11:51:56.531Z,2.87
2023-02-27T11:54:56.370Z,3.77
2023-02-27T11:57:40.121Z,8.23
2023-02-27T12:00:34.485Z,4.63
2023-02-27T12:03:10.937Z,1.90
2023-02-27T12:05:52.133Z,2.20
2023-02-27T12:08:30.935Z,3.53
2023-02-27T12:11:13.658Z,2.50
2023-02-27T12:13:47.265Z,3.53
2023-02-27T12:16:32.956Z,2.80
2023-02-27T12:19:30.307Z,2.23
2023-02-27T12:22:13.681Z,3.47
2023-02-27T12:25:12.652Z,5.63
2023-02-27T12:28:05.286Z,5.00
2023-02-27T12:31:03.430Z,2.70
2023-02-27T12:34:14.967Z,2.67
2023-02-27T12:36:41.877Z,3.10
2023-02-27T12:39:20.117Z,4.43
2023-02-27T12:42:21.086Z,2.83
2023-02-27T12:45:34.197Z,6.80
2023-02-27T12:48:24.126Z,2.03
2023-02-27T12:51:08.046Z,4.37
2023-02-27T12:54:12.979Z,2.53
2023-02-27T12:56:59.261Z,2.97
2023-02-27T12:59:38.217Z,12.13
2023-02-27T13:02:32.816Z,2.73
2023-02-27T13:05:32.311Z,2.70
2023-02-27T13:08:21.383Z,2.57
2023-02-27T13:11:27.314Z,2.20
2023-02-27T13:14:05.660Z,2.60
2023-02-27T13:16:46.706Z,2.80
2023-02-27T13:19:22.951Z,2.53
2023-02-27T13:21:55.772Z,5.57
2023-02-27T13:24:27.036Z,2.20
2023-02-27T13:26:57.936Z,2.47
2023-02-27T13:29:47.651Z,2.23
2023-02-27T13:32:51.562Z,8.73
2023-02-27T13:35:56.248Z,6.50
2023-02-27T13:38:58.096Z,21.10
2023-02-27T13:41:24.972Z,3.30
2023-02-27T13:43:56.967Z,2.60
2023-02-27T13:46:29.793Z,9.20
2023-02-27T13:49:05.936Z,6.73
2023-02-27T13:51:36.006Z,2.30
2023-02-27T13:54:21.716Z,3.30
2023-02-27T13:56:54.803Z,2.70
2023-02-27T13:59:30.604Z,8.43
2023-02-27T14:02:07.119Z,4.30
2023-02-27T14:04:39.547Z,4.80
2023-02-27T14:07:24.026Z,4.30
2023-02-27T14:10:05.585Z,8.90
2023-02-27T14:12:45.822Z,3.73
2023-02-27T14:15:22.127Z,4.57
2023-02-27T14:18:12.362Z,4.67
2023-02-27T14:20:45.068Z,2.60
2023-02-27T14:23:22.359Z,6.90
2023-02-27T14:26:20.510Z,2.47
2023-02-27T14:28:56.411Z,6.30
2023-02-27T14:31:31.336Z,2.83
2023-02-27T14:34:05.206Z,1.73
2023-02-27T14:36:50.131Z,1.80
2023-02-27T14:39:28.401Z,2.33
2023-02-27T14:42:16.921Z,3.07
2023-02-27T14:44:47.768Z,2.13
2023-02-27T14:47:40.622Z,4.20
2023-02-27T14:50:37.302Z,5.90
2023-02-27T14:53:06.034Z,3.77
2023-02-27T14:55:41.522Z,10.53
2023-02-27T14:58:14.433Z,1.67
2023-02-27T15:00:42.696Z,3.47
2023-02-27T15:03:27.295Z,2.10
2023-02-27T15:05:59.625Z,5.23
2023-02-27T15:08:34.587Z,3.77
2023-02-27T15:11:02.436Z,2.40
2023-02-27T15:13:39.611Z,2.23
2023-02-27T15:16:24.444Z,6.10
2023-02-27T15:18:59.576Z,10.97
2023-02-27T15:21:37.777Z,5.43
2023-02-27T15:24:09.073Z,2.37
2023-02-27T15:26:39.950Z,2.53
2023-02-27T15:29:08.613Z,2.87
2023-02-27T15:31:36.054Z,8.07
2023-02-27T15:34:11.122Z,15.03
2023-02-27T15:36:39.329Z,5.33
2023-02-27T15:39:18.978Z,4.03
2023-02-27T15:42:01.932Z,6.27
2023-02-27T15:44:44.703Z,2.00
2023-02-27T15:47:21.593Z,6.93
2023-02-27T15:49:54.817Z,2.13
2023-02-27T15:52:25.027Z,2.17
2023-02-27T15:55:07.204Z,2.43
2023-02-27T15:57:34.300Z,6.30
2023-02-27T16:00:06.381Z,2.53
2023-02-27T16:02:52.777Z,4.77
2023-02-27T16:05:27.083Z,5.27
2023-02-27T16:07:56.784Z,2.40
2023-02-27T16:10:35.443Z,3.07
2023-02-27T16:13:34.778Z,5.13
2023-02-27T16:16:22.041Z,9.70
2023-02-27T16:18:58.775Z,2.43
2023-02-27T16:21:33.795Z,2.43
2023-02-27T16:24:21.191Z,6.80
2023-02-27T16:26:54.954Z,5.10
2023-02-27T16:29:35.025Z,16.63
2023-02-27T16:32:04.653Z,3.17
2023-02-27T16:34:45.380Z,4.00
2023-02-27T16:37:43.517Z,3.53
2023-02-27T16:40:15.838Z,3.40
2023-02-27T16:42:47.167Z,2.50
2023-02-27T16:45:24.689Z,2.80
2023-02-27T16:47:56.732Z,9.10
2023-02-27T16:50:41.042Z,4.30
2023-02-27T16:53:10.593Z,6.23
2023-02-27T16:55:40.990Z,8.30
2023-02-27T16:58:12.782Z,3.23
2023-02-27T17:00:42.792Z,7.70
2023-02-27T17:03:12.242Z,5.60
2023-02-27T17:05:39.183Z,6.03
2023-02-27T17:08:06.088Z,6.17
2023-02-27T17:10:36.114Z,6.03
2023-02-27T17:13:03.216Z,3.27
2023-02-27T17:15:30.174Z,4.53
2023-02-27T17:17:57.161Z,4.83
2023-02-27T17:20:26.177Z,2.90
2023-02-27T17:22:53.222Z,6.00
2023-02-27T17:25:20.310Z,7.20
2023-02-27T17:27:47.534Z,3.43
2023-02-27T17:30:15.001Z,3.30
2023-02-27T17:32:41.922Z,9.23
2023-02-27T17:35:09.460Z,5.50
2023-02-27T17:37:37.828Z,6.60
2023-02-27T17:40:08.274Z,4.23
2023-02-27T17:42:41.922Z,16.13
2023-02-27T17:45:10.515Z,5.73
2023-02-27T17:47:37.524Z,5.70
2023-02-27T17:50:06.271Z,3.50
2023-02-27T17:52:37.960Z,6.63
2023-02-27T17:55:06.476Z,3.97
2023-02-27T17:57:38.882Z,8.20
2023-02-27T18:00:10.546Z,15.83
2023-02-27T18:02:37.480Z,17.97
2023-02-27T18:05:07.616Z,18.33
2023-02-27T18:07:34.695Z,17.87
2023-02-27T18:10:02.595Z,15.23
2023-02-27T18:12:32.037Z,12.17
2023-02-27T18:14:58.915Z,8.23
2023-02-27T18:17:25.899Z,8.90
2023-02-27T18:19:52.815Z,11.60
2023-02-27T18:22:24.237Z,8.50
2023-02-27T18:24:58.702Z,13.03
2023-02-27T18:27:26.731Z,17.57
2023-02-27T18:29:53.940Z,10.40
2023-02-27T18:32:21.111Z,12.90
2023-02-27T18:34:48.016Z,7.80
2023-02-27T18:37:17.224Z,20.80
2023-02-27T18:39:44.197Z,27.93
2023-02-27T18:42:11.148Z,20.03
2023-02-27T18:44:40.677Z,28.00
2023-02-27T18:47:08.057Z,10.70
2023-02-27T18:49:35.073Z,13.93
2023-02-27T18:52:04.220Z,15.27
2023-02-27T18:54:33.572Z,29.70
2023-02-27T18:57:06.064Z,16.77
2023-02-27T18:59:33.085Z,19.40
2023-02-27T19:02:02.228Z,26.53
2023-02-27T19:04:33.453Z,17.90
2023-02-27T19:07:02.596Z,19.10
2023-02-27T19:09:32.782Z,14.70
2023-02-27T19:12:00.734Z,15.53
2023-02-27T19:14:32.321Z,27.30
2023-02-27T19:17:00.439Z,15.57
2023-02-27T19:19:30.012Z,20.10
2023-02-27T19:21:57.138Z,14.20
2023-02-27T19:24:24.388Z,10.10
2023-02-27T19:26:54.187Z,16.83
2023-02-27T19:29:26.330Z,14.50
2023-02-27T19:31:53.336Z,16.90
2023-02-27T19:34:20.488Z,18.00
2023-02-27T19:36:49.766Z,21.67
2023-02-27T19:39:19.443Z,14.30
2023-02-27T19:41:48.629Z,11.20
2023-02-27T19:44:18.426Z,25.63
2023-02-27T19:46:51.416Z,19.50
2023-02-27T19:49:19.744Z,19.63
2023-02-27T19:51:46.771Z,17.67
2023-02-27T19:54:15.848Z,17.17
2023-02-27T19:56:43.311Z,18.20
2023-02-27T19:59:12.447Z,19.23
2023-02-27T20:01:42.117Z,17.97
2023-02-27T20:04:11.059Z,17.43
2023-02-27T20:06:45.790Z,19.90
2023-02-27T20:09:20.381Z,23.97
2023-02-27T20:12:01.404Z,19.33
2023-02-27T20:14:29.436Z,21.00
2023-02-27T20:17:01.101Z,19.23
2023-02-27T20:19:30.498Z,21.00
2023-02-27T20:21:57.682Z,21.07
2023-02-27T20:24:25.350Z,24.60
2023-02-27T20:26:53.980Z,16.70
2023-02-27T20:29:24.051Z,17.63
2023-02-27T20:31:57.372Z,20.07
2023-02-27T20:34:26.416Z,18.93
2023-02-27T20:36:55.334Z,16.77
2023-02-27T20:39:25.265Z,15.53
2023-02-27T20:41:52.926Z,20.67
2023-02-27T20:44:19.956Z,15.40
2023-02-27T20:46:49.321Z,17.60
2023-02-27T20:49:17.054Z,20.93
2023-02-27T20:51:44.873Z,20.47
2023-02-27T20:54:16.712Z,26.27
2023-02-27T20:56:47.516Z,27.33
2023-02-27T20:59:20.814Z,28.87
2023-02-27T21:01:52.107Z,24.77
2023-02-27T21:04:23.995Z,20.20
2023-02-27T21:06:52.171Z,19.60
2023-02-27T21:09:19.791Z,25.93
2023-02-27T21:11:46.723Z,23.60
2023-02-27T21:14:14.505Z,16.83
2023-02-27T21:16:41.524Z,14.77
2023-02-27T21:19:11.045Z,16.40
2023-02-27T21:21:38.010Z,18.67
2023-02-27T21:24:06.073Z,19.93
2023-02-27T21:26:41.420Z,18.07
2023-02-27T21:29:12.982Z,18.30
2023-02-27T21:31:42.188Z,16.67
2023-02-27T21:34:13.814Z,18.13
2023-02-27T21:36:47.334Z,18.70
2023-02-27T21:39:21.775Z,24.30
2023-02-27T21:41:49.468Z,20.17
2023-02-27T21:44:20.552Z,17.10
2023-02-27T21:46:48.121Z,15.53
2023-02-27T21:49:25.423Z,17.73
2023-02-27T21:51:55.275Z,15.77
2023-02-27T21:54:22.958Z,13.53
2023-02-27T21:56:50.454Z,17.97
2023-02-27T21:59:20.161Z,16.37
2023-02-27T22:01:49.683Z,15.17
2023-02-27T22:04:21.756Z,18.43
2023-02-27T22:06:50.708Z,16.83
2023-02-27T22:09:18.728Z,15.77
2023-02-27T22:11:48.765Z,15.10
2023-02-27T22:14:21.264Z,15.27
2023-02-27T22:16:48.491Z,14.80
2023-02-27T22:19:19.876Z,16.00
2023-02-27T22:21:47.641Z,16.93
2023-02-27T22:24:17.167Z,13.33
2023-02-27T22:26:45.806Z,12.63
2023-02-27T22:29:13.102Z,12.20
2023-02-27T22:31:42.226Z,17.13
2023-02-27T22:34:18.486Z,14.70
2023-02-27T22:36:48.721Z,14.17
2023-02-27T22:39:16.326Z,14.63
2023-02-27T22:41:46.008Z,9.27
2023-02-27T22:44:15.917Z,13.67
2023-02-27T22:46:47.520Z,15.67
2023-02-27T22:49:21.833Z,13.50
2023-02-27T22:51:52.035Z,16.20
2023-02-27T22:54:22.442Z,16.50
2023-02-27T22:56:52.653Z,14.07
2023-02-27T22:59:20.562Z,13.77
2023-02-27T23:01:51.408Z,14.70
2023-02-27T23:04:23.366Z,20.17
2023-02-27T23:06:52.664Z,16.20
2023-02-27T23:09:24.153Z,13.40
2023-02-27T23:11:51.964Z,13.37
2023-02-27T23:14:19.918Z,17.43
2023-02-27T23:16:48.270Z,15.87
2023-02-27T23:19:19.593Z,17.83
2023-02-27T23:21:49.088Z,16.07
2023-02-27T23:24:19.726Z,19.80
2023-02-27T23:26:51.320Z,15.90
2023-02-27T23:29:23.379Z,18.90
2023-02-27T23:31:50.674Z,10.13
2023-02-27T23:34:18.215Z,15.43
2023-02-27T23:36:49.897Z,8.90
2023-02-27T23:39:19.628Z,15.03
2023-02-27T23:41:47.108Z,8.80
2023-02-27T23:44:33.030Z,9.77
2023-02-27T23:47:01.332Z,9.73
2023-02-27T23:49:35.492Z,14.10
2023-02-27T23:52:03.418Z,8.03
2023-02-27T23:54:30.488Z,10.60
2023-02-27T23:56:57.441Z,12.90
2023-02-27T23:59:28.946Z,17.37
